createdAt,value
2023-05-17T00:01:03.719Z,6.30
2023-05-17T00:05:07.640Z,6.20
2023-05-17T00:09:08.002Z,6.30
2023-05-17T00:13:08.260Z,6.30
2023-05-17T00:17:08.999Z,6.30
2023-05-17T00:21:12.479Z,6.20
2023-05-17T00:25:13.253Z,6.10
2023-05-17T00:29:13.562Z,6.00
2023-05-17T00:33:15.554Z,6.00
2023-05-17T00:37:18.417Z,5.90
2023-05-17T00:41:18.882Z,5.90
2023-05-17T00:45:19.699Z,5.90
2023-05-17T00:49:20.228Z,5.80
2023-05-17T00:53:23.425Z,5.80
2023-05-17T00:57:23.919Z,5.80
2023-05-17T01:01:25.325Z,5.80
2023-05-17T01:05:29.136Z,5.90
2023-05-17T01:09:32.870Z,5.90
2023-05-17T01:13:43.515Z,5.90
2023-05-17T01:17:56.172Z,5.80
2023-05-17T01:22:18.188Z,5.80
2023-05-17T01:26:23.994Z,5.70
2023-05-17T01:30:31.572Z,5.70
2023-05-17T01:34:33.089Z,5.60
2023-05-17T01:38:33.348Z,5.50
2023-05-17T01:42:36.212Z,5.40
2023-05-17T01:46:44.449Z,5.40
2023-05-17T01:50:47.692Z,5.40
2023-05-17T01:54:59.430Z,5.40
2023-05-17T01:59:02.267Z,5.40
2023-05-17T02:03:06.458Z,5.30
2023-05-17T02:07:07.207Z,5.30
2023-05-17T02:11:07.787Z,5.20
2023-05-17T02:15:12.227Z,5.00
2023-05-17T02:19:15.524Z,4.80
2023-05-17T02:23:15.729Z,4.60
2023-05-17T02:27:16.264Z,4.50
2023-05-17T02:31:16.636Z,4.40
2023-05-17T02:35:19.574Z,4.30
2023-05-17T02:39:19.866Z,4.20
2023-05-17T02:43:20.207Z,4.10
2023-05-17T02:47:21.372Z,4.10
2023-05-17T02:51:24.720Z,4.00
2023-05-17T02:55:25.013Z,3.90
2023-05-17T02:59:25.400Z,3.80
2023-05-17T03:03:26.185Z,3.80
2023-05-17T03:07:29.068Z,3.80
2023-05-17T03:11:29.635Z,3.80
2023-05-17T03:15:32.247Z,3.80
2023-05-17T03:19:32.655Z,3.80
2023-05-17T03:23:36.744Z,3.80
2023-05-17T03:27:37.085Z,3.80
2023-05-17T03:31:38.919Z,3.80
2023-05-17T03:35:39.174Z,3.70
2023-05-17T03:39:42.034Z,3.70
2023-05-17T03:43:42.688Z,3.70
2023-05-17T03:47:45.562Z,3.70
2023-05-17T03:51:45.995Z,3.70
2023-05-17T03:55:49.042Z,3.60
2023-05-17T03:59:51.014Z,3.50
2023-05-17T04:03:53.172Z,3.50
2023-05-17T04:07:54.968Z,3.50
2023-05-17T04:11:58.677Z,3.50
2023-05-17T04:15:59.789Z,3.50
2023-05-17T04:20:00.147Z,3.50
2023-05-17T04:24:00.987Z,3.60
2023-05-17T04:28:05.571Z,3.80
2023-05-17T04:32:06.009Z,3.80
2023-05-17T04:36:07.197Z,3.90
2023-05-17T04:40:11.355Z,4.00
2023-05-17T04:44:15.037Z,4.10
2023-05-17T04:48:17.020Z,4.20
2023-05-17T04:52:17.340Z,4.30
2023-05-17T04:56:19.381Z,4.50
2023-05-17T05:00:24.183Z,4.60
2023-05-17T05:04:33.183Z,4.70
2023-05-17T05:08:37.862Z,4.80
2023-05-17T05:12:41.580Z,5.00
2023-05-17T05:16:44.634Z,5.20
2023-05-17T05:20:44.960Z,5.40
2023-05-17T05:24:45.449Z,5.60
2023-05-17T05:28:46.892Z,5.80
2023-05-17T05:32:50.298Z,6.10
2023-05-17T05:36:50.701Z,6.40
2023-05-17T05:40:54.110Z,6.60
2023-05-17T05:44:54.554Z,6.70
2023-05-17T05:48:58.974Z,6.90
2023-05-17T05:53:14.547Z,7.10
2023-05-17T05:57:21.125Z,7.20
2023-05-17T06:01:22.530Z,7.30
2023-05-17T06:05:26.215Z,7.40
2023-05-17T06:09:26.600Z,7.60
2023-05-17T06:13:26.830Z,7.80
2023-05-17T06:17:27.581Z,8.00
2023-05-17T06:21:30.453Z,8.30
2023-05-17T06:25:30.811Z,8.50
2023-05-17T06:29:31.139Z,8.70
2023-05-17T06:33:33.970Z,9.00
2023-05-17T06:37:37.132Z,9.10
2023-05-17T06:41:37.576Z,9.30
2023-05-17T06:45:37.819Z,9.30
2023-05-17T06:49:38.094Z,9.30
2023-05-17T06:53:41.148Z,9.60
2023-05-17T06:57:41.492Z,9.80
2023-05-17T07:01:42.555Z,10.00
2023-05-17T07:05:42.829Z,10.10
2023-05-17T07:09:45.903Z,10.00
2023-05-17T07:13:46.904Z,10.10
2023-05-17T07:17:47.372Z,10.40
2023-05-17T07:21:48.355Z,10.70
2023-05-17T07:25:51.380Z,11.10
2023-05-17T07:29:51.629Z,11.30
2023-05-17T07:33:51.958Z,11.40
2023-05-17T07:37:53.627Z,11.70
2023-05-17T07:41:56.579Z,12.10
2023-05-17T07:45:59.897Z,12.50
2023-05-17T07:50:00.646Z,12.50
2023-05-17T07:54:03.382Z,12.40
2023-05-17T07:58:06.201Z,12.50
2023-05-17T08:02:06.592Z,12.80
2023-05-17T08:06:08.176Z,12.50
2023-05-17T08:10:10.444Z,12.70
2023-05-17T08:14:16.179Z,13.20
2023-05-17T08:18:16.526Z,13.30
2023-05-17T08:22:16.969Z,13.20
2023-05-17T08:26:19.100Z,13.00
2023-05-17T08:34:28.336Z,12.90
2023-05-17T08:38:28.755Z,12.90
2023-05-17T08:42:30.035Z,13.10
2023-05-17T08:46:35.437Z,12.90
2023-05-17T08:50:38.569Z,12.70
2023-05-17T08:54:39.157Z,12.60
2023-05-17T08:58:55.684Z,12.60
2023-05-17T09:03:00.988Z,12.70
2023-05-17T09:07:01.526Z,12.90
2023-05-17T09:11:02.277Z,13.20
2023-05-17T09:15:17.179Z,13.60
2023-05-17T09:19:21.128Z,14.20
2023-05-17T09:23:24.333Z,14.60
2023-05-17T09:27:24.659Z,14.20
2023-05-17T09:31:24.918Z,13.60
2023-05-17T09:35:34.466Z,13.20
2023-05-17T09:39:36.399Z,13.20
2023-05-17T09:43:38.042Z,13.00
2023-05-17T09:47:38.616Z,13.00
2023-05-17T09:51:44.195Z,13.20
2023-05-17T09:55:44.516Z,13.30
2023-05-17T09:59:45.571Z,13.30
2023-05-17T10:03:46.803Z,13.20
2023-05-17T10:07:52.881Z,13.10
2023-05-17T10:11:56.751Z,13.10
2023-05-17T10:15:58.163Z,13.00
2023-05-17T10:19:59.803Z,13.00
2023-05-17T10:24:06.399Z,12.80
2023-05-17T10:28:09.225Z,13.00
2023-05-17T10:32:11.137Z,13.50
2023-05-17T10:36:13.816Z,13.90
2023-05-17T10:40:20.414Z,14.00
2023-05-17T10:44:22.365Z,14.30
2023-05-17T10:48:22.773Z,14.50
2023-05-17T10:52:26.290Z,14.60
2023-05-17T10:56:29.176Z,14.90
2023-05-17T11:00:33.387Z,14.80
2023-05-17T11:04:39.048Z,14.80
2023-05-17T11:08:40.982Z,14.50
2023-05-17T11:12:47.073Z,14.30
2023-05-17T11:16:47.369Z,13.90
2023-05-17T11:20:51.065Z,13.80
2023-05-17T11:24:56.077Z,13.90
2023-05-17T11:29:10.592Z,13.90
2023-05-17T11:33:24.793Z,14.10
2023-05-17T11:37:32.999Z,14.40
2023-05-17T11:41:33.570Z,14.70
2023-05-17T11:45:45.403Z,14.80
2023-05-17T11:49:45.659Z,14.70
2023-05-17T11:53:47.495Z,14.80
2023-05-17T11:57:48.084Z,14.50
2023-05-17T12:01:53.697Z,14.20
2023-05-17T12:06:04.908Z,13.90
2023-05-17T12:10:07.210Z,13.80
2023-05-17T12:14:09.165Z,13.60
2023-05-17T12:18:12.606Z,13.50
2023-05-17T12:22:15.390Z,13.50
2023-05-17T12:26:17.589Z,13.60
2023-05-17T12:30:19.645Z,13.80
2023-05-17T12:34:23.446Z,14.10
2023-05-17T12:38:24.055Z,14.40
2023-05-17T12:42:25.564Z,14.50
2023-05-17T12:46:27.309Z,14.70
2023-05-17T12:50:35.880Z,14.50
2023-05-17T12:54:37.027Z,14.20
2023-05-17T12:58:37.665Z,14.10
2023-05-17T13:02:38.079Z,13.90
2023-05-17T13:07:00.909Z,13.90
2023-05-17T13:11:17.520Z,13.70
2023-05-17T13:15:18.324Z,13.50
2023-05-17T13:19:18.763Z,13.30
2023-05-17T13:23:22.077Z,13.10
2023-05-17T13:27:22.729Z,12.90
2023-05-17T13:31:22.923Z,13.00
2023-05-17T13:35:23.357Z,13.30
2023-05-17T13:39:26.865Z,13.70
2023-05-17T13:43:27.243Z,14.10
2023-05-17T13:47:30.140Z,14.50
2023-05-17T13:51:30.531Z,15.10
2023-05-17T13:55:33.561Z,15.60
2023-05-17T13:59:34.519Z,15.70
2023-05-17T14:03:35.904Z,15.60
2023-05-17T14:07:36.578Z,15.50
2023-05-17T14:11:39.665Z,15.70
2023-05-17T14:15:40.200Z,15.90
2023-05-17T14:19:40.671Z,16.20
2023-05-17T14:23:41.240Z,17.20
2023-05-17T14:27:44.153Z,17.50
2023-05-17T14:31:44.647Z,17.30
2023-05-17T14:35:45.017Z,17.10
2023-05-17T14:39:55.249Z,17.10
2023-05-17T14:44:08.590Z,18.40
2023-05-17T14:48:10.226Z,20.00
2023-05-17T14:52:11.363Z,21.40
2023-05-17T14:56:11.576Z,20.90
2023-05-17T15:00:16.271Z,20.40
2023-05-17T15:04:16.927Z,19.10
2023-05-17T15:08:17.266Z,18.20
2023-05-17T15:12:17.478Z,17.60
2023-05-17T15:16:21.334Z,17.20
2023-05-17T15:20:23.666Z,16.80
2023-05-17T15:24:24.028Z,16.50
2023-05-17T15:28:24.631Z,17.50
2023-05-17T15:32:27.823Z,18.20
2023-05-17T15:36:28.432Z,17.80
2023-05-17T15:40:28.833Z,17.30
2023-05-17T15:44:29.096Z,17.30
2023-05-17T15:48:32.084Z,18.60
2023-05-17T15:52:33.497Z,20.30
2023-05-17T15:56:33.842Z,21.20
2023-05-17T16:00:34.301Z,21.20
2023-05-17T16:04:37.846Z,20.60
2023-05-17T16:08:41.738Z,19.50
2023-05-17T16:12:42.180Z,19.30
2023-05-17T16:16:45.008Z,19.60
2023-05-17T16:20:48.324Z,18.80
2023-05-17T16:24:48.773Z,18.70
2023-05-17T16:28:48.927Z,18.90
2023-05-17T16:32:50.157Z,18.30
2023-05-17T16:36:53.438Z,18.60
2023-05-17T16:40:53.786Z,18.10
2023-05-17T16:44:54.198Z,17.70
2023-05-17T16:48:55.658Z,17.50
2023-05-17T16:52:58.794Z,17.90
2023-05-17T16:56:59.225Z,18.20
2023-05-17T17:00:59.418Z,17.70
2023-05-17T17:05:00.318Z,17.10
2023-05-17T17:09:07.898Z,17.20
2023-05-17T17:13:08.539Z,17.30
2023-05-17T17:17:09.123Z,17.30
2023-05-17T17:21:09.668Z,17.10
2023-05-17T17:25:13.548Z,16.50
2023-05-17T17:29:13.778Z,15.80
2023-05-17T17:33:14.151Z,15.20
2023-05-17T17:37:14.531Z,14.70
2023-05-17T17:41:17.362Z,14.20
2023-05-17T17:45:17.856Z,13.80
2023-05-17T17:49:18.247Z,13.40
2023-05-17T17:53:19.418Z,13.10
2023-05-17T17:57:23.142Z,12.90
2023-05-17T18:01:23.566Z,12.80
2023-05-17T18:05:25.559Z,12.60
2023-05-17T18:09:26.391Z,12.40
2023-05-17T18:13:29.292Z,12.20
2023-05-17T18:17:29.694Z,12.00
2023-05-17T18:21:31.121Z,11.90
2023-05-17T18:25:31.563Z,11.80
2023-05-17T18:29:34.432Z,11.80
2023-05-17T18:33:35.352Z,11.70
2023-05-17T18:37:36.477Z,11.50
2023-05-17T18:41:36.744Z,11.40
2023-05-17T18:45:39.734Z,11.10
2023-05-17T18:49:42.105Z,10.90
2023-05-17T18:53:42.260Z,10.60
2023-05-17T18:57:42.594Z,10.40
2023-05-17T19:01:45.840Z,10.20
2023-05-17T19:05:46.251Z,10.10
2023-05-17T19:09:46.602Z,9.90
2023-05-17T19:13:47.151Z,9.80
2023-05-17T19:17:50.198Z,9.70
2023-05-17T19:21:50.454Z,9.60
2023-05-17T19:25:51.141Z,9.40
2023-05-17T19:29:51.997Z,9.30
2023-05-17T19:33:54.755Z,9.10
2023-05-17T19:37:56.843Z,9.00
2023-05-17T19:41:57.205Z,8.80
2023-05-17T19:45:57.564Z,8.70
2023-05-17T19:50:00.427Z,8.60
2023-05-17T19:54:00.737Z,8.50
2023-05-17T19:58:01.634Z,8.40
2023-05-17T20:02:02.013Z,8.20
2023-05-17T20:06:05.574Z,8.10
2023-05-17T20:10:06.911Z,8.00
2023-05-17T20:14:07.663Z,7.90
2023-05-17T20:18:13.106Z,7.80
2023-05-17T20:22:16.791Z,7.70
2023-05-17T20:26:25.923Z,7.60
2023-05-17T20:30:26.336Z,7.50
2023-05-17T20:34:28.512Z,7.50
2023-05-17T20:38:31.738Z,7.40
2023-05-17T20:42:32.856Z,7.30
2023-05-17T20:46:33.722Z,7.20
2023-05-17T20:50:34.131Z,7.20
2023-05-17T20:54:37.302Z,7.10
2023-05-17T20:58:37.892Z,7.00
2023-05-17T21:02:38.639Z,7.10
2023-05-17T21:06:39.475Z,7.20
2023-05-17T21:10:46.686Z,7.10
2023-05-17T21:14:54.224Z,7.10
2023-05-17T21:19:01.347Z,7.00
2023-05-17T21:23:01.759Z,7.00
2023-05-17T21:27:04.685Z,7.00
2023-05-17T21:31:06.531Z,6.90
2023-05-17T21:35:08.345Z,6.90
2023-05-17T21:39:08.788Z,6.80
2023-05-17T21:43:12.712Z,6.70
2023-05-17T21:47:13.207Z,6.70
2023-05-17T21:51:15.607Z,6.60
2023-05-17T21:55:15.903Z,6.50
2023-05-17T21:59:19.260Z,6.50
2023-05-17T22:03:19.679Z,6.50
2023-05-17T22:07:20.372Z,6.50
2023-05-17T22:11:23.021Z,6.60
2023-05-17T22:15:26.441Z,6.40
2023-05-17T22:19:26.773Z,6.30
2023-05-17T22:23:27.039Z,6.20
2023-05-17T22:27:27.275Z,6.00
2023-05-17T22:31:30.877Z,5.90
2023-05-17T22:35:31.792Z,5.80
2023-05-17T22:39:32.036Z,5.70
2023-05-17T22:43:32.680Z,5.70
2023-05-17T22:47:35.887Z,5.60
2023-05-17T22:51:36.424Z,5.60
2023-05-17T22:55:36.679Z,5.50
2023-05-17T22:59:36.943Z,5.50
2023-05-17T23:03:40.943Z,5.50
2023-05-17T23:07:43.525Z,5.60
2023-05-17T23:11:43.787Z,5.70
2023-05-17T23:15:47.005Z,5.80
2023-05-17T23:19:50.021Z,5.80
2023-05-17T23:23:53.636Z,6.00
2023-05-17T23:27:54.330Z,6.00
2023-05-17T23:31:54.596Z,6.10
2023-05-17T23:35:57.417Z,6.20
2023-05-17T23:39:57.620Z,6.30
2023-05-17T23:43:57.830Z,6.40
2023-05-17T23:48:00.637Z,6.40
2023-05-17T23:52:03.781Z,6.50
2023-05-17T23:56:05.115Z,6.60
